createdAt,value
2022-09-15T00:02:32.106Z,17.00
2022-09-15T00:05:34.837Z,16.97
2022-09-15T00:08:38.925Z,16.77
2022-09-15T00:11:41.508Z,16.91
2022-09-15T00:14:44.509Z,16.78
2022-09-15T00:17:49.708Z,16.62
2022-09-15T00:20:52.250Z,16.38
2022-09-15T00:23:56.237Z,16.92
2022-09-15T00:26:58.751Z,16.88
2022-09-15T00:30:01.309Z,16.54
2022-09-15T00:33:03.878Z,16.86
2022-09-15T00:36:07.416Z,16.77
2022-09-15T00:39:12.212Z,16.63
2022-09-15T00:42:15.665Z,16.61
2022-09-15T00:45:18.442Z,16.92
2022-09-15T00:48:22.461Z,17.02
2022-09-15T00:51:33.884Z,17.08
2022-09-15T00:54:40.245Z,16.69
2022-09-15T00:57:45.041Z,16.73
2022-09-15T01:00:50.159Z,17.03
2022-09-15T01:03:52.751Z,17.20
2022-09-15T01:06:57.460Z,17.03
2022-09-15T01:10:02.371Z,17.01
2022-09-15T01:13:06.932Z,17.11
2022-09-15T01:16:16.239Z,16.89
2022-09-15T01:19:32.272Z,16.91
2022-09-15T01:22:37.785Z,17.24
2022-09-15T01:25:59.658Z,17.15
2022-09-15T01:29:21.823Z,16.95
2022-09-15T01:32:43.897Z,16.76
2022-09-15T01:35:54.221Z,17.16
2022-09-15T01:39:00.865Z,16.81
2022-09-15T01:42:04.823Z,17.01
2022-09-15T01:45:11.296Z,16.78
2022-09-15T01:48:13.933Z,16.80
2022-09-15T01:51:16.538Z,17.03
2022-09-15T01:54:20.458Z,16.62
2022-09-15T01:57:23.005Z,16.96
2022-09-15T02:00:27.019Z,16.53
2022-09-15T02:03:32.031Z,16.94
2022-09-15T02:06:39.701Z,16.63
2022-09-15T02:09:45.194Z,16.93
2022-09-15T02:12:50.701Z,16.92
2022-09-15T02:15:57.269Z,16.89
2022-09-15T02:19:10.126Z,16.57
2022-09-15T02:22:14.484Z,16.85
2022-09-15T02:25:18.736Z,16.82
2022-09-15T02:28:23.904Z,16.73
2022-09-15T02:31:27.919Z,16.44
2022-09-15T02:34:32.637Z,16.83
2022-09-15T02:37:35.569Z,16.53
2022-09-15T02:40:38.314Z,16.75
2022-09-15T02:43:45.667Z,16.54
2022-09-15T02:46:49.673Z,16.79
2022-09-15T02:49:52.821Z,16.70
2022-09-15T02:52:55.483Z,16.29
2022-09-15T02:55:58.305Z,16.70
2022-09-15T02:59:00.893Z,16.79
2022-09-15T03:02:05.589Z,16.79
2022-09-15T03:05:09.583Z,16.70
2022-09-15T03:08:12.151Z,16.40
2022-09-15T03:11:15.448Z,16.78
2022-09-15T03:14:18.047Z,16.64
2022-09-15T03:17:22.036Z,16.72
2022-09-15T03:20:26.005Z,16.76
2022-09-15T03:23:28.725Z,16.36
2022-09-15T03:26:31.357Z,16.38
2022-09-15T03:29:33.949Z,16.75
2022-09-15T03:32:37.964Z,16.74
2022-09-15T03:35:40.874Z,16.46
2022-09-15T03:38:43.431Z,16.65
2022-09-15T03:41:46.038Z,16.61
2022-09-15T03:44:48.661Z,16.70
2022-09-15T03:47:52.682Z,16.21
2022-09-15T03:50:55.408Z,16.70
2022-09-15T03:53:57.969Z,16.52
2022-09-15T03:57:00.564Z,16.65
2022-09-15T04:00:03.881Z,16.73
2022-09-15T04:03:07.921Z,16.55
2022-09-15T04:06:10.548Z,16.73
2022-09-15T04:09:13.559Z,16.74
2022-09-15T04:12:16.140Z,16.73
2022-09-15T04:15:18.973Z,16.53
2022-09-15T04:18:22.970Z,16.75
2022-09-15T04:21:26.672Z,16.72
2022-09-15T04:24:29.318Z,16.76
2022-09-15T04:27:34.260Z,16.73
2022-09-15T04:30:37.210Z,16.39
2022-09-15T04:33:41.788Z,16.32
2022-09-15T04:36:44.636Z,16.75
2022-09-15T04:39:47.828Z,16.74
2022-09-15T04:42:50.484Z,16.75
2022-09-15T04:45:53.083Z,16.40
2022-09-15T04:48:57.237Z,16.73
2022-09-15T04:51:59.801Z,16.14
2022-09-15T04:55:02.400Z,16.70
2022-09-15T04:58:05.022Z,16.20
2022-09-15T05:01:11.794Z,16.54
2022-09-15T05:04:15.839Z,16.49
2022-09-15T05:07:18.466Z,16.68
2022-09-15T05:10:21.065Z,16.65
2022-09-15T05:13:23.595Z,16.62
2022-09-15T05:16:27.708Z,16.06
2022-09-15T05:19:32.019Z,16.59
2022-09-15T05:22:37.256Z,16.56
2022-09-15T05:25:43.649Z,16.02
2022-09-15T05:28:46.204Z,16.53
2022-09-15T05:31:48.955Z,16.52
2022-09-15T05:34:53.004Z,16.52
2022-09-15T05:37:55.649Z,16.41
2022-09-15T05:41:03.330Z,16.49
2022-09-15T05:44:06.404Z,16.57
2022-09-15T05:47:08.970Z,16.50
2022-09-15T05:50:12.939Z,16.41
2022-09-15T05:53:15.567Z,16.65
2022-09-15T05:56:18.515Z,16.48
2022-09-15T05:59:21.112Z,16.70
2022-09-15T06:02:23.783Z,16.58
2022-09-15T06:05:27.993Z,16.32
2022-09-15T06:08:33.995Z,16.73
2022-09-15T06:11:36.674Z,16.64
2022-09-15T06:14:39.299Z,16.67
2022-09-15T06:17:41.871Z,16.70
2022-09-15T06:20:45.896Z,16.60
2022-09-15T06:23:53.398Z,16.70
2022-09-15T06:26:56.002Z,16.76
2022-09-15T06:29:58.607Z,16.41
2022-09-15T06:33:01.218Z,16.57
2022-09-15T06:36:05.584Z,16.86
2022-09-15T06:39:08.461Z,16.89
2022-09-15T06:42:13.800Z,16.93
2022-09-15T06:45:16.933Z,16.71
2022-09-15T06:48:24.964Z,17.01
2022-09-15T06:51:35.206Z,16.90
2022-09-15T06:54:37.831Z,17.07
2022-09-15T06:57:40.416Z,16.97
2022-09-15T07:00:43.094Z,17.01
2022-09-15T07:03:45.822Z,17.18
2022-09-15T07:06:50.360Z,17.08
2022-09-15T07:09:53.095Z,16.84
2022-09-15T07:12:55.781Z,17.18
2022-09-15T07:15:59.078Z,17.35
2022-09-15T07:19:03.611Z,16.93
2022-09-15T07:22:07.701Z,16.99
2022-09-15T07:25:10.795Z,17.16
2022-09-15T07:28:13.510Z,17.20
2022-09-15T07:31:17.455Z,17.22
2022-09-15T07:34:20.315Z,17.23
2022-09-15T07:37:24.433Z,17.17
2022-09-15T07:40:27.206Z,16.99
2022-09-15T07:43:29.972Z,16.80
2022-09-15T07:46:33.097Z,17.53
2022-09-15T07:49:35.873Z,17.99
2022-09-15T07:52:40.236Z,18.35
2022-09-15T07:55:43.052Z,18.70
2022-09-15T07:58:45.716Z,18.48
2022-09-15T08:01:48.434Z,18.64
2022-09-15T08:04:51.079Z,19.13
2022-09-15T08:07:55.194Z,18.67
2022-09-15T08:10:58.020Z,18.93
2022-09-15T08:14:01.626Z,18.72
2022-09-15T08:17:09.385Z,18.57
2022-09-15T08:20:13.998Z,18.56
2022-09-15T08:23:17.941Z,18.72
2022-09-15T08:26:20.488Z,18.71
2022-09-15T08:29:23.081Z,18.66
2022-09-15T08:32:25.726Z,18.38
2022-09-15T08:35:28.307Z,18.39
2022-09-15T08:38:32.284Z,18.56
2022-09-15T08:41:36.501Z,18.20
2022-09-15T08:44:42.837Z,18.47
2022-09-15T08:47:46.564Z,18.01
2022-09-15T08:50:49.943Z,18.45
2022-09-15T08:53:55.405Z,18.48
2022-09-15T08:56:58.313Z,18.50
2022-09-15T09:00:00.835Z,18.51
2022-09-15T09:03:26.727Z,17.98
2022-09-15T09:06:32.033Z,18.47
2022-09-15T09:09:40.902Z,18.15
2022-09-15T09:12:50.641Z,18.68
2022-09-15T09:16:03.852Z,18.48
2022-09-15T09:19:16.314Z,18.86
2022-09-15T09:22:21.687Z,18.97
2022-09-15T09:25:27.943Z,18.75
2022-09-15T09:28:31.990Z,19.10
2022-09-15T09:31:34.526Z,19.16
2022-09-15T09:34:39.180Z,19.15
2022-09-15T09:37:41.684Z,19.20
2022-09-15T09:40:45.661Z,19.29
2022-09-15T09:43:49.065Z,19.65
2022-09-15T09:46:51.794Z,19.69
2022-09-15T09:49:54.305Z,19.79
2022-09-15T09:52:56.845Z,19.87
2022-09-15T09:56:19.253Z,19.90
2022-09-15T09:59:33.379Z,19.76
2022-09-15T10:02:38.582Z,19.99
2022-09-15T10:05:41.177Z,19.72
2022-09-15T10:08:54.253Z,20.13
2022-09-15T10:11:59.635Z,20.18
2022-09-15T10:15:03.291Z,20.17
2022-09-15T10:18:06.361Z,20.20
2022-09-15T10:21:09.355Z,20.14
2022-09-15T10:24:34.252Z,20.44
2022-09-15T10:27:38.359Z,20.17
2022-09-15T10:30:41.058Z,20.64
2022-09-15T10:33:44.939Z,20.33
2022-09-15T10:36:47.560Z,20.75
2022-09-15T10:39:53.911Z,20.36
2022-09-15T10:43:00.327Z,20.71
2022-09-15T10:46:05.146Z,20.39
2022-09-15T10:49:16.159Z,20.16
2022-09-15T10:52:22.706Z,20.54
2022-09-15T10:55:48.855Z,20.32
2022-09-15T10:59:10.297Z,20.41
2022-09-15T11:02:52.135Z,20.38
2022-09-15T11:06:02.443Z,20.35
2022-09-15T11:09:11.773Z,20.34
2022-09-15T11:12:29.005Z,20.24
2022-09-15T11:15:37.591Z,20.25
2022-09-15T11:18:50.544Z,20.13
2022-09-15T11:21:53.616Z,19.77
2022-09-15T11:24:57.484Z,19.81
2022-09-15T11:28:02.515Z,20.22
2022-09-15T11:31:08.280Z,20.00
2022-09-15T11:34:15.014Z,19.78
2022-09-15T11:37:18.871Z,20.02
2022-09-15T11:40:22.621Z,19.67
2022-09-15T11:43:28.930Z,20.10
2022-09-15T11:46:43.316Z,20.10
2022-09-15T11:49:47.120Z,19.58
2022-09-15T11:52:53.128Z,19.64
2022-09-15T11:55:59.639Z,20.07
2022-09-15T11:59:05.719Z,20.12
2022-09-15T12:02:17.192Z,20.15
2022-09-15T12:05:22.132Z,20.10
2022-09-15T12:08:28.608Z,19.80
2022-09-15T12:11:32.829Z,20.22
2022-09-15T12:14:36.222Z,20.36
2022-09-15T12:17:42.989Z,20.55
2022-09-15T12:20:49.840Z,20.53
2022-09-15T12:23:55.566Z,20.50
2022-09-15T12:27:00.568Z,20.47
2022-09-15T12:30:04.907Z,20.73
2022-09-15T12:33:41.098Z,20.69
2022-09-15T12:36:45.601Z,20.56
2022-09-15T12:39:48.521Z,20.21
2022-09-15T12:42:51.080Z,20.27
2022-09-15T12:45:55.289Z,20.19
2022-09-15T12:49:03.032Z,20.01
2022-09-15T12:52:07.784Z,20.04
2022-09-15T12:55:19.069Z,20.03
2022-09-15T12:58:22.831Z,19.95
2022-09-15T13:01:33.362Z,19.91
2022-09-15T13:04:46.629Z,19.86
2022-09-15T13:08:00.212Z,19.80
2022-09-15T13:11:03.668Z,19.41
2022-09-15T13:14:14.539Z,19.46
2022-09-15T13:17:18.295Z,19.04
2022-09-15T13:20:23.131Z,19.48
2022-09-15T13:23:28.100Z,19.23
2022-09-15T13:26:30.699Z,19.43
2022-09-15T13:29:33.308Z,19.39
2022-09-15T13:32:40.894Z,19.26
2022-09-15T13:35:50.728Z,19.48
2022-09-15T13:38:59.365Z,19.46
2022-09-15T13:42:31.289Z,19.49
2022-09-15T13:45:43.886Z,19.50
2022-09-15T13:48:51.457Z,19.36
2022-09-15T13:51:59.520Z,19.51
2022-09-15T13:55:21.418Z,19.22
2022-09-15T14:01:47.657Z,19.38
2022-09-15T14:04:52.805Z,19.09
2022-09-15T14:08:00.629Z,19.01
2022-09-15T14:11:08.275Z,19.30
2022-09-15T14:14:21.795Z,19.44
2022-09-15T14:17:25.546Z,19.21
2022-09-15T14:20:31.039Z,18.70
2022-09-15T14:23:33.638Z,18.37
2022-09-15T14:26:37.707Z,18.71
2022-09-15T14:29:40.531Z,18.82
2022-09-15T14:32:45.681Z,18.68
2022-09-15T14:35:48.292Z,18.50
2022-09-15T14:39:21.436Z,18.81
2022-09-15T14:42:30.418Z,18.65
2022-09-15T14:46:02.587Z,18.45
2022-09-15T14:49:09.715Z,18.65
2022-09-15T14:52:25.138Z,18.54
2022-09-15T14:55:29.060Z,18.57
2022-09-15T14:58:34.747Z,18.18
2022-09-15T15:01:38.711Z,18.28
2022-09-15T15:04:42.380Z,18.59
2022-09-15T15:07:45.030Z,18.50
2022-09-15T15:10:47.620Z,18.65
2022-09-15T15:13:52.566Z,18.13
2022-09-15T15:16:59.153Z,18.25
2022-09-15T15:20:03.519Z,18.14
2022-09-15T15:23:12.976Z,18.74
2022-09-15T15:26:25.589Z,18.72
2022-09-15T15:29:43.760Z,18.69
2022-09-15T15:32:46.453Z,18.34
2022-09-15T15:35:49.636Z,18.74
2022-09-15T15:38:53.148Z,18.71
2022-09-15T15:42:01.284Z,18.67
2022-09-15T15:45:06.209Z,18.41
2022-09-15T15:48:09.557Z,18.61
2022-09-15T15:51:12.516Z,18.62
2022-09-15T15:54:15.171Z,18.61
2022-09-15T15:57:24.797Z,18.61
2022-09-15T16:00:30.646Z,18.42
2022-09-15T16:03:33.344Z,18.05
2022-09-15T16:06:35.949Z,18.49
2022-09-15T16:09:38.884Z,18.49
2022-09-15T16:12:41.503Z,18.45
2022-09-15T16:15:45.555Z,18.44
2022-09-15T16:18:48.194Z,18.41
2022-09-15T16:21:50.785Z,18.31
2022-09-15T16:24:55.080Z,18.01
2022-09-15T16:27:57.679Z,18.26
2022-09-15T16:31:01.682Z,18.29
2022-09-15T16:34:04.435Z,18.31
2022-09-15T16:37:07.771Z,17.69
2022-09-15T16:40:10.515Z,18.17
2022-09-15T16:43:14.526Z,18.03
2022-09-15T16:46:18.703Z,18.04
2022-09-15T16:49:21.300Z,17.83
2022-09-15T16:52:23.932Z,17.46
2022-09-15T16:55:36.851Z,17.83
2022-09-15T16:58:39.661Z,17.43
2022-09-15T17:01:43.599Z,17.61
2022-09-15T17:04:46.228Z,17.63
2022-09-15T17:07:48.847Z,17.74
2022-09-15T17:10:52.765Z,17.74
2022-09-15T17:13:55.343Z,17.43
2022-09-15T17:16:59.461Z,17.50
2022-09-15T17:20:02.289Z,17.02
2022-09-15T17:23:06.546Z,17.55
2022-09-15T17:26:11.711Z,17.54
2022-09-15T17:29:14.423Z,17.51
2022-09-15T17:32:18.421Z,17.40
2022-09-15T17:35:22.877Z,17.24
2022-09-15T17:38:25.574Z,17.38
2022-09-15T17:41:28.071Z,17.32
2022-09-15T17:44:33.217Z,17.26
2022-09-15T17:47:42.132Z,17.07
2022-09-15T17:50:45.357Z,17.03
2022-09-15T17:53:48.108Z,16.68
2022-09-15T17:56:50.741Z,16.67
2022-09-15T17:59:53.365Z,16.76
2022-09-15T18:02:57.944Z,16.84
2022-09-15T18:06:00.891Z,16.81
2022-09-15T18:09:03.536Z,16.74
2022-09-15T18:12:06.233Z,17.10
2022-09-15T18:15:12.843Z,17.13
2022-09-15T18:18:17.652Z,17.11
2022-09-15T18:21:24.477Z,17.06
2022-09-15T18:24:28.313Z,17.03
2022-09-15T18:27:30.885Z,16.85
2022-09-15T18:30:36.343Z,16.70
2022-09-15T18:33:40.292Z,16.91
2022-09-15T18:36:42.923Z,16.76
2022-09-15T18:39:45.695Z,16.90
2022-09-15T18:42:48.396Z,16.66
2022-09-15T18:45:51.323Z,16.74
2022-09-15T18:48:55.260Z,16.84
2022-09-15T18:51:59.169Z,16.69
2022-09-15T18:55:02.259Z,16.75
2022-09-15T18:58:04.940Z,16.67
2022-09-15T19:01:07.801Z,16.40
2022-09-15T19:04:11.997Z,16.75
2022-09-15T19:07:14.580Z,16.44
2022-09-15T19:10:17.297Z,16.47
2022-09-15T19:13:19.860Z,16.33
2022-09-15T19:16:34.687Z,16.62
2022-09-15T19:19:47.295Z,16.40
2022-09-15T19:22:51.531Z,16.42
2022-09-15T19:25:54.153Z,16.61
2022-09-15T19:28:56.764Z,16.35
2022-09-15T19:31:59.385Z,16.11
2022-09-15T19:35:03.377Z,16.44
2022-09-15T19:38:05.935Z,16.60
2022-09-15T19:41:09.328Z,16.33
2022-09-15T19:44:11.967Z,16.41
2022-09-15T19:47:14.588Z,16.28
2022-09-15T19:50:18.742Z,16.51
2022-09-15T19:53:21.363Z,16.11
2022-09-15T19:56:26.125Z,16.26
2022-09-15T19:59:31.326Z,16.06
2022-09-15T20:02:34.647Z,16.47
2022-09-15T20:05:38.889Z,16.31
2022-09-15T20:08:44.536Z,15.97
2022-09-15T20:11:47.190Z,16.41
2022-09-15T20:14:49.887Z,15.94
2022-09-15T20:17:52.493Z,16.13
2022-09-15T20:20:56.481Z,16.33
2022-09-15T20:23:59.274Z,15.87
2022-09-15T20:27:01.938Z,16.35
2022-09-15T20:30:05.595Z,16.35
2022-09-15T20:33:08.239Z,16.23
2022-09-15T20:36:13.426Z,16.22
2022-09-15T20:39:18.688Z,16.31
2022-09-15T20:42:21.287Z,16.35
2022-09-15T20:45:24.225Z,16.09
2022-09-15T20:48:27.137Z,16.30
2022-09-15T20:51:32.006Z,16.29
2022-09-15T20:54:34.597Z,15.96
2022-09-15T20:57:37.195Z,16.28
2022-09-15T21:00:39.776Z,15.70
2022-09-15T21:03:43.305Z,15.97
2022-09-15T21:06:47.513Z,16.17
2022-09-15T21:09:50.128Z,16.25
2022-09-15T21:12:52.736Z,16.13
2022-09-15T21:15:56.976Z,16.13
2022-09-15T21:18:59.630Z,16.05
2022-09-15T21:22:03.647Z,15.92
2022-09-15T21:25:07.244Z,15.54
2022-09-15T21:28:09.861Z,15.86
2022-09-15T21:31:13.322Z,15.80
2022-09-15T21:34:16.916Z,15.78
2022-09-15T21:37:20.927Z,15.44
2022-09-15T21:40:23.623Z,15.41
2022-09-15T21:43:30.140Z,15.61
2022-09-15T21:46:32.779Z,15.21
2022-09-15T21:49:35.406Z,15.28
2022-09-15T21:52:39.479Z,15.48
2022-09-15T21:55:42.772Z,15.63
2022-09-15T21:58:45.586Z,15.42
2022-09-15T22:01:48.514Z,15.45
2022-09-15T22:04:52.435Z,15.55
2022-09-15T22:07:56.577Z,15.50
2022-09-15T22:10:59.729Z,15.39
2022-09-15T22:14:02.913Z,15.59
2022-09-15T22:17:05.701Z,15.53
2022-09-15T22:20:09.230Z,15.40
2022-09-15T22:23:13.229Z,15.08
2022-09-15T22:26:17.225Z,15.30
2022-09-15T22:29:19.919Z,15.35
2022-09-15T22:32:22.687Z,15.24
2022-09-15T22:35:25.726Z,15.26
2022-09-15T22:38:30.289Z,15.21
2022-09-15T22:41:33.069Z,15.31
2022-09-15T22:44:35.736Z,15.15
2022-09-15T22:47:38.344Z,15.33
2022-09-15T22:50:41.073Z,15.43
2022-09-15T22:53:45.161Z,15.02
2022-09-15T22:56:47.965Z,14.92
2022-09-15T22:59:50.615Z,15.29
2022-09-15T23:02:53.274Z,15.28
2022-09-15T23:05:58.259Z,15.23
2022-09-15T23:09:03.418Z,15.47
2022-09-15T23:12:07.858Z,15.23
2022-09-15T23:15:11.371Z,15.50
2022-09-15T23:18:13.984Z,15.30
2022-09-15T23:21:16.628Z,15.51
2022-09-15T23:24:20.753Z,15.50
2022-09-15T23:27:23.401Z,15.50
2022-09-15T23:30:26.003Z,15.37
2022-09-15T23:33:29.979Z,15.41
2022-09-15T23:36:32.595Z,15.34
2022-09-15T23:39:36.598Z,15.52
2022-09-15T23:42:39.240Z,14.94
2022-09-15T23:45:42.336Z,15.19
2022-09-15T23:48:45.218Z,15.50
2022-09-15T23:51:47.825Z,15.49
2022-09-15T23:54:51.848Z,15.47
2022-09-15T23:57:55.591Z,15.33
